N166RB KDZJ-KAVL
Flight info
| Callsign | N166RB |
|---|---|
| Flight time | 0h 41m |
| Altitude | 9000 |
| Route | CALOK |
| Aircraft | PA32/L-VGD/C |
Departure
| Time | 2026-05-08 00:04 |
|---|---|
| Airport | Blairsville Airport (KDZJ) |
Arrival
| Time | 2026-05-08 00:46 |
|---|---|
| Airport | Asheville Regional Airport (KAVL) |
| Time | Latitude | Longitude | Altitude | Speed | Heading |
|---|---|---|---|---|---|
| 2026-05-07 23:56 | 34.85316 | -83.99879 | 1871 ft | 0 kts | 165° |
| 2026-05-07 23:59 | 34.85292 | -83.99927 | 1874 ft | 12 kts | 258° |
| 2026-05-07 23:59 | 34.85332 | -84.00000 | 1883 ft | 5 kts | 342° |
| 2026-05-08 00:00 | 34.85333 | -84.00000 | 1883 ft | 0 kts | 343° |
| 2026-05-08 00:00 | 34.85363 | -84.00025 | 1883 ft | 14 kts | 291° |
| 2026-05-08 00:00 | 34.85329 | -84.00188 | 1883 ft | 24 kts | 252° |
| 2026-05-08 00:00 | 34.85281 | -84.00398 | 1890 ft | 26 kts | 261° |
| 2026-05-08 00:01 | 34.85249 | -84.00523 | 1897 ft | 3 kts | 121° |
| 2026-05-08 00:01 | 34.85249 | -84.00517 | 1896 ft | 0 kts | 74° |
| 2026-05-08 00:03 | 34.85263 | -84.00462 | 1893 ft | 33 kts | 71° |
| 2026-05-08 00:03 | 34.85398 | -83.99951 | 1894 ft | 80 kts | 70° |
| 2026-05-08 00:04 | 34.85548 | -83.99301 | 2047 ft | 79 kts | 70° |
| 2026-05-08 00:04 | 34.85706 | -83.98646 | 2253 ft | 85 kts | 67° |
| 2026-05-08 00:04 | 34.85907 | -83.97909 | 2467 ft | 91 kts | 66° |
| 2026-05-08 00:04 | 34.86081 | -83.97186 | 2756 ft | 85 kts | 58° |
| 2026-05-08 00:05 | 34.86414 | -83.96672 | 3025 ft | 75 kts | 18° |
| 2026-05-08 00:05 | 34.86877 | -83.96682 | 3271 ft | 70 kts | 322° |
| 2026-05-08 00:05 | 34.87022 | -83.97253 | 3438 ft | 88 kts | 264° |
| 2026-05-08 00:05 | 34.86610 | -83.97917 | 3606 ft | 104 kts | 231° |
| 2026-05-08 00:06 | 34.86022 | -83.98414 | 3874 ft | 105 kts | 213° |
| 2026-05-08 00:06 | 34.85307 | -83.98615 | 4131 ft | 110 kts | 179° |
| 2026-05-08 00:06 | 34.84628 | -83.98158 | 4342 ft | 117 kts | 123° |
| 2026-05-08 00:06 | 34.84485 | -83.97297 | 4619 ft | 99 kts | 58° |
| 2026-05-08 00:07 | 34.84975 | -83.96864 | 4703 ft | 87 kts | 338° |
| 2026-05-08 00:07 | 34.85223 | -83.97494 | 4832 ft | 98 kts | 261° |
| 2026-05-08 00:07 | 34.84579 | -83.97912 | 4851 ft | 142 kts | 169° |
| 2026-05-08 00:07 | 34.83765 | -83.97242 | 5125 ft | 138 kts | 129° |
| 2026-05-08 00:08 | 34.83416 | -83.96213 | 5380 ft | 129 kts | 84° |
| 2026-05-08 00:08 | 34.83630 | -83.95239 | 5566 ft | 117 kts | 45° |
| 2026-05-08 00:08 | 34.84135 | -83.94486 | 5760 ft | 113 kts | 32° |
| 2026-05-08 00:08 | 34.84695 | -83.93814 | 5939 ft | 113 kts | 28° |
| 2026-05-08 00:09 | 34.85270 | -83.93158 | 6125 ft | 114 kts | 27° |
| 2026-05-08 00:09 | 34.85854 | -83.92502 | 6334 ft | 115 kts | 28° |
| 2026-05-08 00:09 | 34.86441 | -83.91839 | 6552 ft | 116 kts | 28° |
| 2026-05-08 00:09 | 34.86853 | -83.90915 | 6738 ft | 134 kts | 66° |
| 2026-05-08 00:10 | 34.86967 | -83.89776 | 6952 ft | 137 kts | 78° |
| 2026-05-08 00:10 | 34.86990 | -83.88610 | 7156 ft | 139 kts | 82° |
| 2026-05-08 00:10 | 34.86996 | -83.87421 | 7351 ft | 141 kts | 81° |
| 2026-05-08 00:10 | 34.87009 | -83.86223 | 7543 ft | 142 kts | 80° |
| 2026-05-08 00:11 | 34.87033 | -83.85016 | 7729 ft | 143 kts | 80° |
| 2026-05-08 00:11 | 34.87063 | -83.83808 | 7920 ft | 144 kts | 79° |
| 2026-05-08 00:11 | 34.87098 | -83.82584 | 8092 ft | 146 kts | 79° |
| 2026-05-08 00:11 | 34.87135 | -83.81335 | 8272 ft | 147 kts | 79° |
| 2026-05-08 00:12 | 34.87173 | -83.80090 | 8429 ft | 150 kts | 79° |
| 2026-05-08 00:12 | 34.87212 | -83.78814 | 8596 ft | 151 kts | 80° |
| 2026-05-08 00:12 | 34.87250 | -83.77538 | 8752 ft | 153 kts | 81° |
| 2026-05-08 00:12 | 34.87290 | -83.76234 | 8909 ft | 155 kts | 80° |
| 2026-05-08 00:13 | 34.87333 | -83.74886 | 8979 ft | 165 kts | 82° |
| 2026-05-08 00:13 | 34.87380 | -83.73432 | 8991 ft | 178 kts | 83° |
| 2026-05-08 00:13 | 34.87425 | -83.71894 | 8992 ft | 189 kts | 82° |
| 2026-05-08 00:13 | 34.87471 | -83.70240 | 8987 ft | 197 kts | 83° |
| 2026-05-08 00:14 | 34.87515 | -83.68557 | 8988 ft | 203 kts | 84° |
| 2026-05-08 00:14 | 34.87561 | -83.66824 | 8987 ft | 207 kts | 84° |
| 2026-05-08 00:14 | 34.87609 | -83.65053 | 8985 ft | 209 kts | 84° |
| 2026-05-08 00:14 | 34.87657 | -83.63278 | 8986 ft | 211 kts | 83° |
| 2026-05-08 00:15 | 34.87706 | -83.61515 | 9007 ft | 211 kts | 83° |
| 2026-05-08 00:15 | 34.87758 | -83.59712 | 9012 ft | 212 kts | 84° |
| 2026-05-08 00:15 | 34.87809 | -83.57922 | 9011 ft | 213 kts | 84° |
| 2026-05-08 00:15 | 34.87861 | -83.56109 | 9014 ft | 214 kts | 84° |
| 2026-05-08 00:16 | 34.87911 | -83.54317 | 9016 ft | 214 kts | 84° |
| 2026-05-08 00:16 | 34.87962 | -83.52517 | 9018 ft | 214 kts | 84° |
| 2026-05-08 00:16 | 34.88014 | -83.50684 | 9022 ft | 214 kts | 84° |
| 2026-05-08 00:16 | 34.88064 | -83.48877 | 9021 ft | 214 kts | 83° |
| 2026-05-08 00:17 | 34.88114 | -83.47088 | 9021 ft | 214 kts | 84° |
| 2026-05-08 00:17 | 34.88164 | -83.45286 | 9019 ft | 213 kts | 84° |
| 2026-05-08 00:17 | 34.88215 | -83.43462 | 9018 ft | 213 kts | 84° |
| 2026-05-08 00:17 | 34.88264 | -83.41663 | 9013 ft | 214 kts | 84° |
| 2026-05-08 00:18 | 34.88314 | -83.39854 | 9013 ft | 214 kts | 85° |
| 2026-05-08 00:18 | 34.88363 | -83.38056 | 9011 ft | 214 kts | 85° |
| 2026-05-08 00:18 | 34.88410 | -83.36265 | 9011 ft | 213 kts | 85° |
| 2026-05-08 00:18 | 34.88459 | -83.34448 | 9007 ft | 214 kts | 84° |
| 2026-05-08 00:19 | 34.88506 | -83.32640 | 9004 ft | 213 kts | 85° |
| 2026-05-08 00:19 | 34.88553 | -83.30856 | 9000 ft | 213 kts | 85° |
| 2026-05-08 00:19 | 34.88602 | -83.29039 | 8996 ft | 213 kts | 85° |
| 2026-05-08 00:19 | 34.88648 | -83.27262 | 8997 ft | 212 kts | 85° |
| 2026-05-08 00:20 | 34.88692 | -83.25469 | 8996 ft | 212 kts | 85° |
| 2026-05-08 00:20 | 34.88737 | -83.23676 | 8993 ft | 212 kts | 85° |
| 2026-05-08 00:20 | 34.88796 | -83.21871 | 8990 ft | 211 kts | 81° |
| 2026-05-08 00:20 | 34.89336 | -83.20329 | 9000 ft | 194 kts | 37° |
| 2026-05-08 00:21 | 34.90398 | -83.19426 | 9008 ft | 182 kts | 16° |
| 2026-05-08 00:21 | 34.91533 | -83.18761 | 9001 ft | 179 kts | 11° |
| 2026-05-08 00:21 | 34.92681 | -83.18175 | 9000 ft | 179 kts | 9° |
| 2026-05-08 00:21 | 34.93833 | -83.17602 | 8997 ft | 180 kts | 9° |
| 2026-05-08 00:22 | 34.95002 | -83.17007 | 8999 ft | 180 kts | 11° |
| 2026-05-08 00:22 | 34.96154 | -83.16398 | 8997 ft | 181 kts | 11° |
| 2026-05-08 00:22 | 34.97308 | -83.15771 | 8993 ft | 182 kts | 13° |
| 2026-05-08 00:22 | 34.98457 | -83.15131 | 8995 ft | 182 kts | 13° |
| 2026-05-08 00:23 | 34.99600 | -83.14487 | 8993 ft | 182 kts | 13° |
| 2026-05-08 00:23 | 35.00748 | -83.13836 | 8993 ft | 182 kts | 14° |
| 2026-05-08 00:23 | 35.01899 | -83.13179 | 8995 ft | 182 kts | 13° |
| 2026-05-08 00:23 | 35.03037 | -83.12529 | 8996 ft | 182 kts | 13° |
| 2026-05-08 00:24 | 35.04196 | -83.11866 | 8996 ft | 182 kts | 14° |
| 2026-05-08 00:24 | 35.05341 | -83.11211 | 8999 ft | 181 kts | 14° |
| 2026-05-08 00:24 | 35.06472 | -83.10564 | 8997 ft | 181 kts | 13° |
| 2026-05-08 00:24 | 35.07621 | -83.09906 | 8998 ft | 182 kts | 13° |
| 2026-05-08 00:25 | 35.08772 | -83.09247 | 9002 ft | 182 kts | 14° |
| 2026-05-08 00:25 | 35.09916 | -83.08592 | 8999 ft | 182 kts | 13° |
| 2026-05-08 00:25 | 35.11060 | -83.07937 | 9001 ft | 182 kts | 13° |
| 2026-05-08 00:25 | 35.12213 | -83.07276 | 9007 ft | 182 kts | 13° |
| 2026-05-08 00:26 | 35.13350 | -83.06624 | 9009 ft | 182 kts | 14° |
| 2026-05-08 00:26 | 35.14506 | -83.05961 | 9007 ft | 182 kts | 14° |
| 2026-05-08 00:26 | 35.15645 | -83.05308 | 9007 ft | 181 kts | 14° |
| 2026-05-08 00:26 | 35.16797 | -83.04650 | 9007 ft | 181 kts | 14° |
| 2026-05-08 00:27 | 35.17937 | -83.03998 | 9008 ft | 181 kts | 14° |
| 2026-05-08 00:27 | 35.19078 | -83.03343 | 9011 ft | 181 kts | 13° |
| 2026-05-08 00:27 | 35.20217 | -83.02689 | 9008 ft | 181 kts | 13° |
| 2026-05-08 00:27 | 35.21370 | -83.02028 | 9014 ft | 181 kts | 14° |
| 2026-05-08 00:28 | 35.22492 | -83.01383 | 9015 ft | 180 kts | 14° |
| 2026-05-08 00:28 | 35.23644 | -83.00721 | 9014 ft | 180 kts | 14° |
| 2026-05-08 00:28 | 35.24770 | -83.00073 | 9012 ft | 180 kts | 14° |
| 2026-05-08 00:28 | 35.25918 | -82.99413 | 9016 ft | 180 kts | 14° |
| 2026-05-08 00:29 | 35.27048 | -82.98763 | 9014 ft | 180 kts | 14° |
| 2026-05-08 00:29 | 35.28180 | -82.98113 | 9016 ft | 180 kts | 14° |
| 2026-05-08 00:29 | 35.29312 | -82.97460 | 9013 ft | 180 kts | 14° |
| 2026-05-08 00:29 | 35.30456 | -82.96800 | 9009 ft | 180 kts | 14° |
| 2026-05-08 00:30 | 35.31587 | -82.96151 | 9012 ft | 179 kts | 14° |
| 2026-05-08 00:30 | 35.32715 | -82.95500 | 9012 ft | 179 kts | 14° |
| 2026-05-08 00:30 | 35.33841 | -82.94850 | 9012 ft | 179 kts | 14° |
| 2026-05-08 00:30 | 35.34974 | -82.94198 | 9009 ft | 179 kts | 14° |
| 2026-05-08 00:31 | 35.36107 | -82.93545 | 9008 ft | 179 kts | 14° |
| 2026-05-08 00:31 | 35.37223 | -82.92901 | 9006 ft | 179 kts | 14° |
| 2026-05-08 00:31 | 35.38361 | -82.92244 | 9006 ft | 180 kts | 15° |
| 2026-05-08 00:31 | 35.39497 | -82.91589 | 9008 ft | 179 kts | 14° |
| 2026-05-08 00:32 | 35.40621 | -82.90939 | 9006 ft | 179 kts | 14° |
| 2026-05-08 00:32 | 35.41750 | -82.90286 | 9003 ft | 179 kts | 14° |
| 2026-05-08 00:32 | 35.42891 | -82.89628 | 9002 ft | 179 kts | 14° |
| 2026-05-08 00:32 | 35.44016 | -82.88977 | 9002 ft | 179 kts | 14° |
| 2026-05-08 00:33 | 35.45144 | -82.88325 | 9003 ft | 180 kts | 14° |
| 2026-05-08 00:33 | 35.46270 | -82.87674 | 9010 ft | 179 kts | 14° |
| 2026-05-08 00:33 | 35.47401 | -82.87019 | 9015 ft | 179 kts | 14° |
| 2026-05-08 00:33 | 35.48531 | -82.86365 | 9017 ft | 179 kts | 15° |
| 2026-05-08 00:34 | 35.49681 | -82.85702 | 8859 ft | 184 kts | 15° |
| 2026-05-08 00:34 | 35.50864 | -82.85018 | 8664 ft | 188 kts | 15° |
| 2026-05-08 00:34 | 35.52045 | -82.84332 | 8477 ft | 190 kts | 17° |
| 2026-05-08 00:34 | 35.53240 | -82.83636 | 8281 ft | 192 kts | 16° |
| 2026-05-08 00:35 | 35.54462 | -82.82925 | 8087 ft | 193 kts | 17° |
| 2026-05-08 00:35 | 35.55661 | -82.82225 | 7895 ft | 192 kts | 17° |
| 2026-05-08 00:35 | 35.56864 | -82.81523 | 7700 ft | 190 kts | 17° |
| 2026-05-08 00:35 | 35.58047 | -82.80832 | 7503 ft | 188 kts | 18° |
| 2026-05-08 00:36 | 35.59229 | -82.80127 | 7309 ft | 187 kts | 19° |
| 2026-05-08 00:36 | 35.60387 | -82.79419 | 7108 ft | 185 kts | 19° |
| 2026-05-08 00:36 | 35.61524 | -82.78705 | 6915 ft | 183 kts | 20° |
| 2026-05-08 00:36 | 35.62618 | -82.77912 | 6701 ft | 188 kts | 36° |
| 2026-05-08 00:37 | 35.63157 | -82.76464 | 6649 ft | 193 kts | 78° |
| 2026-05-08 00:37 | 35.63295 | -82.74821 | 6464 ft | 195 kts | 77° |
| 2026-05-08 00:37 | 35.63516 | -82.73203 | 6421 ft | 187 kts | 72° |
| 2026-05-08 00:38 | 35.64120 | -82.70416 | 6385 ft | 139 kts | 64° |
| 2026-05-08 00:38 | 35.64399 | -82.69369 | 6395 ft | 121 kts | 59° |
| 2026-05-08 00:38 | 35.64673 | -82.68426 | 6403 ft | 112 kts | 58° |
| 2026-05-08 00:38 | 35.64940 | -82.67550 | 6410 ft | 109 kts | 56° |
| 2026-05-08 00:39 | 35.65210 | -82.66685 | 6414 ft | 108 kts | 57° |
| 2026-05-08 00:39 | 35.65476 | -82.65807 | 6411 ft | 110 kts | 62° |
| 2026-05-08 00:39 | 35.65491 | -82.64849 | 6404 ft | 118 kts | 97° |
| 2026-05-08 00:39 | 35.65064 | -82.63975 | 6402 ft | 121 kts | 138° |
| 2026-05-08 00:40 | 35.64334 | -82.63498 | 6409 ft | 118 kts | 161° |
| 2026-05-08 00:40 | 35.63554 | -82.63129 | 6414 ft | 118 kts | 163° |
| 2026-05-08 00:40 | 35.62774 | -82.62781 | 6410 ft | 119 kts | 163° |
| 2026-05-08 00:40 | 35.61968 | -82.62427 | 6246 ft | 125 kts | 164° |
| 2026-05-08 00:41 | 35.61145 | -82.62065 | 6078 ft | 127 kts | 164° |
| 2026-05-08 00:41 | 35.60300 | -82.61689 | 5905 ft | 129 kts | 164° |
| 2026-05-08 00:41 | 35.59462 | -82.61323 | 5716 ft | 128 kts | 164° |
| 2026-05-08 00:41 | 35.58590 | -82.60945 | 5361 ft | 138 kts | 162° |
| 2026-05-08 00:42 | 35.57667 | -82.60535 | 4996 ft | 143 kts | 162° |
| 2026-05-08 00:42 | 35.56755 | -82.60120 | 4758 ft | 136 kts | 162° |
| 2026-05-08 00:42 | 35.55885 | -82.59724 | 4554 ft | 129 kts | 160° |
| 2026-05-08 00:42 | 35.55055 | -82.59351 | 4363 ft | 126 kts | 161° |
| 2026-05-08 00:43 | 35.54243 | -82.58985 | 4193 ft | 124 kts | 160° |
| 2026-05-08 00:43 | 35.53444 | -82.58626 | 4029 ft | 122 kts | 160° |
| 2026-05-08 00:43 | 35.52650 | -82.58269 | 3878 ft | 121 kts | 159° |
| 2026-05-08 00:43 | 35.51856 | -82.57911 | 3705 ft | 122 kts | 160° |
| 2026-05-08 00:44 | 35.51051 | -82.57549 | 3540 ft | 122 kts | 159° |
| 2026-05-08 00:44 | 35.50246 | -82.57188 | 3372 ft | 124 kts | 159° |
| 2026-05-08 00:44 | 35.49433 | -82.56821 | 3204 ft | 124 kts | 158° |
| 2026-05-08 00:44 | 35.48631 | -82.56461 | 3041 ft | 122 kts | 157° |
| 2026-05-08 00:45 | 35.47826 | -82.56100 | 2876 ft | 123 kts | 157° |
| 2026-05-08 00:45 | 35.47032 | -82.55743 | 2709 ft | 122 kts | 158° |
| 2026-05-08 00:45 | 35.46246 | -82.55389 | 2555 ft | 119 kts | 159° |
| 2026-05-08 00:45 | 35.45460 | -82.55034 | 2391 ft | 118 kts | 158° |
| 2026-05-08 00:46 | 35.44691 | -82.54690 | 2214 ft | 115 kts | 158° |
| 2026-05-08 00:46 | 35.44031 | -82.54400 | 2153 ft | 81 kts | 160° |
| 2026-05-08 00:46 | 35.43675 | -82.54228 | 2152 ft | 14 kts | 169° |
| 2026-05-08 00:46 | 35.43641 | -82.54211 | 2151 ft | 4 kts | 168° |
| 2026-05-08 00:47 | 35.43559 | -82.54155 | 2146 ft | 22 kts | 89° |
| 2026-05-08 00:47 | 35.43558 | -82.54047 | 2144 ft | 0 kts | 160° |
| 2026-05-08 00:47 | 35.43525 | -82.53959 | 2142 ft | 24 kts | 111° |
| 2026-05-08 00:47 | 35.43433 | -82.53903 | 2136 ft | 4 kts | 169° |
| 2026-05-08 00:48 | 35.43405 | -82.53897 | 2134 ft | 9 kts | 170° |